Etusivu
METAR-TAF:

METAR-TAF

Lentoasemat :

Chengdu, Kiina

Chengdu Shuangliun kansainvälinen lentoasema

Leveyspiiri: 30-40N, Pituuspiiri: 104-01E, korkeus merenpinnasta: 508 m

Tämänhetkinen sää

Tämä raportti tehtiin 17 tuntia ja 47 minuuttia sitten, kello 15.00 UTC
Tuuli 6 kn idästä, vaihdellen idän/koillisen ja etelän/kaakon välillä
Lämpötila 14°C
Kosteus 63%
Ilmanpaine 1020 hPa
Näkyvyys 10 km tai enemmän
Hajonneita pilviä 5000 ft:n korkeudessa

METAR: ZUUU 201500Z 10003MPS 060V150 9999 BKN050 14/07 Q1020 NOSIG

Aika: 16:47 (08:47 UTC)

Sääennuste

Tämä raportti tehtiin 44 minuuttia sitten, kello 08.03 UTC
Ennuste voimassa 20. päivästä klo 12 UTC - 21. päivään klo 12 UTC
Tuuli 6 kn pohjoisesta/koillisesta
Näkyvyys: 5000 m
Hajanaisia pilviä 5000 ft:n korkeudessa
utua

TAF: ZUUU 200803Z 2012/2112 02003MPS 5000 BR SCT050 TX12/2107Z TN04/2023Z

Säähavainnot ja -ennusteet yli 4000 lentoasemalta (METAR- ja TAF-raportit).

Käytössä olevat sääasemat on merkitty karttaan keltaisilla ja punaisilla pisteillä.

Aseta hiiri pisteen päälle nähdäksesi sääaseman nimen.

Klikkaa sitten nähdäksesi säähavainnot ja -ennusteet.

Kartan vaihtaminen: klikkaa mustalla rastilla varustettuja vihreitä pisteitä, niin voit zoomata sisään; viivalla varustettua vihreää pistettä, niin voit zoomata ulos tai vihreitä nuolia, niin pääset viereisille kartoille.


METAR-TAF: